Time;durP1;ratioP1;P1;durP2;ratioP2;P2;SDS_P1;SDS_P2;PMS_P1;PMS_P2;Temp;Humidity;BMP_temperature;BMP_pressure;BME280_temperature;BME280_humidity;BME280_pressure;Samples;Min_cycle;Max_cycle;Signal;HPM_P1;HPM_P2
2021/12/13 00:01:22;;;;;;;3.57;3.20;;;6.50;99.90;;;;;;5066702;28;20204;-79
2021/12/13 00:04:24;;;;;;;3.40;3.10;;;6.50;99.90;;;;;;5048476;28;20181;-78
2021/12/13 00:06:57;;;;;;;3.90;2.73;;;6.50;99.90;;;;;;4995607;28;20189;-79
2021/12/13 00:09:25;;;;;;;3.80;3.40;;;6.60;99.90;;;;;;5048888;28;20194;-82
2021/12/13 00:11:56;;;;;;;3.20;2.90;;;6.50;99.90;;;;;;5048629;28;20233;-82
2021/12/13 00:14:27;;;;;;;4.03;3.63;;;6.50;99.90;;;;;;5055928;28;20280;-81
2021/12/13 00:17:08;;;;;;;3.73;3.33;;;6.50;99.90;;;;;;5049002;28;20181;-77
2021/12/13 00:19:39;;;;;;;3.47;3.17;;;6.60;99.90;;;;;;5067692;28;20302;-80
2021/12/13 00:22:19;;;;;;;4.33;3.63;;;6.60;99.90;;;;;;5049364;28;20209;-79
2021/12/13 00:24:46;;;;;;;4.07;3.40;;;6.60;99.90;;;;;;5050135;28;20828;-79
2021/12/13 00:27:24;;;;;;;3.60;3.30;;;6.60;99.90;;;;;;5047727;28;20186;-78
2021/12/13 00:30:06;;;;;;;5.33;3.40;;;6.70;99.90;;;;;;5066698;28;20680;-79
2021/12/13 00:33:13;;;;;;;3.20;2.90;;;6.60;99.90;;;;;;5066977;28;20177;-79
2021/12/13 00:35:54;;;;;;;3.60;3.30;;;6.60;99.90;;;;;;5017786;28;20644;-79
2021/12/13 00:38:23;;;;;;;6.43;3.77;;;6.50;99.90;;;;;;5047833;28;20190;-79
2021/12/13 00:41:08;;;;;;;3.63;3.00;;;6.50;99.90;;;;;;5049304;28;20572;-79
2021/12/13 00:44:04;;;;;;;4.37;3.00;;;6.40;99.90;;;;;;5048078;28;20728;-80
2021/12/13 00:46:31;;;;;;;3.67;3.37;;;6.50;99.90;;;;;;5048982;28;20173;-80
2021/12/13 00:49:00;;;;;;;3.60;3.30;;;6.40;99.90;;;;;;5065890;28;20280;-79
2021/12/13 00:51:29;;;;;;;3.57;3.17;;;6.50;99.90;;;;;;5047013;28;20634;-81
2021/12/13 00:53:57;;;;;;;3.93;3.57;;;6.40;99.90;;;;;;5065878;28;20186;-81
2021/12/13 00:56:51;;;;;;;4.33;3.93;;;6.50;99.90;;;;;;5056650;28;20208;-81
2021/12/13 00:59:26;;;;;;;4.60;4.10;;;6.50;99.90;;;;;;5048345;28;20628;-81
2021/12/13 01:02:09;;;;;;;4.67;3.90;;;6.50;99.90;;;;;;5066514;28;20694;-81
2021/12/13 01:04:46;;;;;;;4.83;4.33;;;6.50;99.90;;;;;;5047776;28;20185;-77
2021/12/13 01:07:33;;;;;;;4.57;4.17;;;6.50;99.90;;;;;;5048372;28;20196;-79
2021/12/13 01:10:36;;;;;;;4.57;4.10;;;6.50;99.90;;;;;;5066427;28;20194;-80
2021/12/13 01:13:05;;;;;;;4.63;3.67;;;6.60;99.90;;;;;;5047774;28;20173;-80
2021/12/13 01:15:38;;;;;;;4.90;4.27;;;6.50;99.90;;;;;;5048947;28;20185;-79
2021/12/13 01:21:00;;;;;;;4.93;4.47;;;6.50;99.90;;;;;;5065971;28;20308;-81
2021/12/13 01:23:41;;;;;;;4.40;3.97;;;6.50;99.90;;;;;;5065021;28;20202;-80
2021/12/13 01:26:36;;;;;;;4.97;4.17;;;6.60;99.90;;;;;;5048591;28;20554;-79
2021/12/13 01:29:12;;;;;;;4.30;3.90;;;6.60;99.90;;;;;;5056347;28;20200;-82
2021/12/13 01:31:45;;;;;;;5.13;4.63;;;6.60;99.90;;;;;;5056891;28;20185;-81
2021/12/13 01:34:12;;;;;;;4.53;4.13;;;6.60;99.90;;;;;;5048248;28;20178;-80
2021/12/13 01:36:49;;;;;;;4.60;4.10;;;6.60;99.90;;;;;;5063824;28;20189;-81
2021/12/13 01:39:19;;;;;;;5.17;4.67;;;6.60;99.90;;;;;;5065570;28;20201;-80
2021/12/13 01:41:52;;;;;;;5.10;4.60;;;6.70;99.90;;;;;;5056934;28;20198;-77
2021/12/13 01:44:25;;;;;;;5.27;4.77;;;6.70;99.90;;;;;;5048516;28;20189;-81
2021/12/13 01:47:02;;;;;;;5.30;4.73;;;6.70;99.90;;;;;;5047276;28;20177;-78
2021/12/13 01:49:34;;;;;;;5.50;4.93;;;6.70;99.90;;;;;;5066019;28;20204;-80
2021/12/13 01:52:00;;;;;;;5.40;4.80;;;6.90;99.90;;;;;;5045870;28;20181;-79
2021/12/13 01:54:28;;;;;;;5.67;5.07;;;6.90;99.90;;;;;;5048485;28;20200;-79
2021/12/13 01:59:57;;;;;;;6.27;5.33;;;6.80;99.90;;;;;;5065712;28;20775;-82
2021/12/13 02:02:31;;;;;;;5.43;4.87;;;6.70;99.90;;;;;;5048098;28;20278;-81
2021/12/13 02:05:05;;;;;;;5.97;5.17;;;6.70;99.90;;;;;;5047681;28;20277;-80
2021/12/13 02:07:40;;;;;;;6.93;5.13;;;6.70;99.90;;;;;;5047356;28;20177;-80
2021/12/13 02:10:14;;;;;;;5.43;4.93;;;6.70;99.90;;;;;;5066153;28;20205;-79
2021/12/13 02:12:43;;;;;;;6.40;5.47;;;6.80;99.90;;;;;;5066250;28;20177;-80
2021/12/13 02:17:54;;;;;;;5.37;4.67;;;6.80;99.90;;;;;;5066154;28;20197;-81
2021/12/13 02:20:35;;;;;;;5.07;4.43;;;6.90;99.90;;;;;;5066575;28;20601;-82
2021/12/13 02:23:02;;;;;;;6.13;4.40;;;6.80;99.90;;;;;;5047061;28;20212;-80
2021/12/13 02:25:46;;;;;;;4.80;4.30;;;6.70;99.90;;;;;;5065730;28;20183;-80
2021/12/13 02:28:23;;;;;;;5.20;4.40;;;6.80;99.90;;;;;;5047964;28;20253;-78
2021/12/13 02:31:02;;;;;;;4.87;4.13;;;6.90;99.90;;;;;;5049380;28;20205;-81
2021/12/13 02:33:36;;;;;;;4.83;4.17;;;6.90;99.90;;;;;;5060531;28;20197;-78
2021/12/13 02:36:09;;;;;;;6.27;4.07;;;6.80;99.90;;;;;;5061629;28;20189;-81
2021/12/13 02:38:37;;;;;;;4.57;3.80;;;6.70;99.90;;;;;;5050490;28;20675;-80
2021/12/13 02:41:04;;;;;;;4.40;3.90;;;6.70;99.90;;;;;;5052737;28;20190;-79
2021/12/13 02:43:35;;;;;;;4.30;3.90;;;6.70;99.90;;;;;;5051224;28;20213;-80
2021/12/13 02:46:01;;;;;;;4.23;3.83;;;6.80;99.90;;;;;;5050590;28;20178;-79
2021/12/13 02:48:34;;;;;;;4.07;3.37;;;6.70;99.90;;;;;;5051033;28;20527;-80
2021/12/13 02:51:29;;;;;;;5.13;4.33;;;6.70;99.90;;;;;;5068680;28;20174;-80
2021/12/13 02:53:57;;;;;;;4.60;3.87;;;6.70;99.90;;;;;;5009546;28;20269;-79
2021/12/13 02:56:27;;;;;;;4.50;4.00;;;6.80;99.90;;;;;;5049639;28;20192;-80
2021/12/13 02:58:55;;;;;;;4.87;4.20;;;6.80;99.90;;;;;;5048709;28;20219;-79
2021/12/13 03:01:25;;;;;;;5.27;4.67;;;6.80;99.90;;;;;;5057906;28;20182;-79
2021/12/13 03:03:56;;;;;;;5.80;4.50;;;7.00;99.90;;;;;;5059217;28;20185;-79
2021/12/13 03:06:26;;;;;;;5.47;4.63;;;7.00;99.90;;;;;;5048008;28;20239;-78
2021/12/13 03:08:58;;;;;;;4.93;4.43;;;7.10;99.90;;;;;;5058168;28;20264;-80
2021/12/13 03:11:29;;;;;;;5.50;4.50;;;7.00;99.90;;;;;;5050300;28;20182;-80
2021/12/13 03:14:16;;;;;;;5.13;4.60;;;7.00;99.90;;;;;;5068308;28;20542;-79
2021/12/13 03:16:47;;;;;;;5.77;4.63;;;7.10;99.90;;;;;;5057403;28;20189;-80
2021/12/13 03:19:27;;;;;;;5.57;4.33;;;7.10;99.90;;;;;;5049494;28;20212;-80
2021/12/13 03:21:58;;;;;;;5.43;4.50;;;7.10;99.90;;;;;;5067987;28;20193;-79
2021/12/13 03:24:36;;;;;;;6.07;4.83;;;7.00;99.90;;;;;;5068023;28;20304;-78
2021/12/13 03:27:05;;;;;;;6.67;4.57;;;7.10;99.90;;;;;;5067579;28;20184;-81
2021/12/13 03:29:52;;;;;;;5.77;4.33;;;7.10;99.90;;;;;;5067134;28;20202;-80
2021/12/13 03:32:20;;;;;;;5.93;4.43;;;7.10;99.90;;;;;;5067564;28;20212;-81
2021/12/13 03:35:14;;;;;;;5.97;4.20;;;7.20;99.90;;;;;;5049535;28;20201;-78
2021/12/13 03:37:42;;;;;;;5.20;4.40;;;7.10;99.90;;;;;;5067722;28;20178;-78
2021/12/13 03:40:15;;;;;;;5.93;4.37;;;7.20;99.90;;;;;;5066520;28;20227;-79
2021/12/13 03:42:49;;;;;;;5.37;4.30;;;7.10;99.90;;;;;;5048629;28;20205;-80
2021/12/13 03:45:25;;;;;;;5.67;4.80;;;7.10;99.90;;;;;;5067145;28;20182;-80
2021/12/13 03:47:55;;;;;;;6.00;4.80;;;7.20;99.90;;;;;;5067075;28;20286;-77
2021/12/13 03:50:27;;;;;;;6.23;4.80;;;7.20;99.90;;;;;;5066650;28;20198;-80
2021/12/13 03:53:03;;;;;;;6.00;4.50;;;7.20;99.90;;;;;;5048767;28;20188;-79
2021/12/13 03:55:31;;;;;;;5.87;4.80;;;7.30;99.90;;;;;;5047362;28;20629;-77
2021/12/13 03:58:01;;;;;;;5.53;4.43;;;7.30;99.90;;;;;;5047865;28;20209;-79
2021/12/13 04:00:31;;;;;;;5.77;4.87;;;7.20;99.90;;;;;;5048349;28;20216;-78
2021/12/13 04:03:00;;;;;;;6.13;4.93;;;7.20;99.90;;;;;;5056241;28;20205;-78
2021/12/13 04:05:28;;;;;;;7.73;5.20;;;7.00;99.90;;;;;;5048646;28;20182;-79
2021/12/13 04:07:57;;;;;;;6.97;5.23;;;7.20;99.90;;;;;;5048508;28;20186;-79
2021/12/13 04:10:33;;;;;;;7.93;5.77;;;7.20;99.90;;;;;;5067036;28;20208;-78
2021/12/13 04:13:08;;;;;;;8.10;6.00;;;7.20;99.90;;;;;;5049795;28;20187;-80
2021/12/13 04:16:06;;;;;;;8.00;5.77;;;7.20;99.90;;;;;;5065533;28;20643;-81
2021/12/13 04:21:35;;;;;;;8.33;6.37;;;7.30;99.90;;;;;;5066608;28;20182;-76
2021/12/13 04:24:04;;;;;;;9.93;7.00;;;7.30;99.90;;;;;;5067304;28;20220;-79
2021/12/13 04:26:36;;;;;;;10.20;7.07;;;7.30;99.90;;;;;;5047566;28;20185;-79
2021/12/13 04:29:01;;;;;;;8.67;6.57;;;7.40;99.90;;;;;;5041287;28;20957;-79
2021/12/13 04:31:37;;;;;;;10.10;7.30;;;7.40;99.90;;;;;;5048724;28;20213;-78
2021/12/13 04:34:05;;;;;;;10.53;7.47;;;7.40;99.90;;;;;;5065966;28;20238;-82
2021/12/13 04:36:47;;;;;;;10.40;6.90;;;7.30;99.90;;;;;;5047872;28;20189;-80
2021/12/13 04:39:21;;;;;;;9.60;6.60;;;7.30;99.90;;;;;;5056456;28;20250;-78
2021/12/13 04:41:49;;;;;;;9.50;6.90;;;7.30;99.90;;;;;;5048065;28;20208;-81
2021/12/13 04:44:43;;;;;;;11.10;7.10;;;7.30;99.90;;;;;;5049011;28;20177;-79
2021/12/13 04:47:19;;;;;;;9.50;6.90;;;7.30;99.90;;;;;;5047544;28;20292;-80
2021/12/13 04:50:12;;;;;;;10.47;7.50;;;7.30;99.90;;;;;;5048813;28;20300;-79
2021/12/13 04:52:39;;;;;;;11.03;7.00;;;7.20;99.90;;;;;;5039980;28;20226;-77
2021/12/13 04:55:15;;;;;;;11.37;8.30;;;7.30;99.90;;;;;;5057013;28;20974;-82
2021/12/13 04:57:41;;;;;;;10.53;7.30;;;7.30;99.90;;;;;;5057289;28;20274;-80
2021/12/13 05:00:15;;;;;;;11.90;7.57;;;7.20;99.90;;;;;;5047654;28;20229;-79
2021/12/13 05:02:48;;;;;;;10.43;7.50;;;7.20;99.90;;;;;;5064759;28;20205;-78
2021/12/13 05:05:15;;;;;;;12.03;7.80;;;7.20;99.90;;;;;;5064751;28;20458;-81
2021/12/13 05:07:43;;;;;;;12.07;8.10;;;7.30;99.90;;;;;;5046579;28;20542;-77
2021/12/13 05:10:10;;;;;;;11.47;7.23;;;7.20;99.90;;;;;;5046843;28;20233;-76
2021/12/13 05:12:36;;;;;;;10.93;8.10;;;7.20;99.90;;;;;;5046912;28;20189;-78
2021/12/13 05:15:09;;;;;;;10.03;6.87;;;7.30;99.90;;;;;;5048538;28;20193;-80
2021/12/13 05:17:45;;;;;;;12.87;8.27;;;7.30;99.90;;;;;;5048717;28;20273;-77
2021/12/13 05:20:23;;;;;;;12.00;8.03;;;7.20;99.90;;;;;;5057009;28;20205;-80
2021/12/13 05:23:07;;;;;;;11.63;7.87;;;7.30;99.90;;;;;;5066238;28;20670;-79
2021/12/13 05:25:43;;;;;;;9.67;7.27;;;7.20;99.90;;;;;;5066227;28;20276;-79
2021/12/13 05:28:21;;;;;;;11.87;8.10;;;7.20;99.90;;;;;;5065836;28;20184;-79
2021/12/13 05:30:54;;;;;;;13.10;8.30;;;7.30;99.90;;;;;;5047993;28;20213;-80
2021/12/13 05:33:20;;;;;;;12.57;8.80;;;7.40;99.90;;;;;;5066083;28;20185;-77
2021/12/13 05:35:50;;;;;;;11.97;7.80;;;7.30;99.90;;;;;;5048111;28;20193;-78
2021/12/13 05:38:33;;;;;;;11.40;7.83;;;7.20;99.90;;;;;;5047348;28;20189;-79
2021/12/13 05:41:02;;;;;;;12.27;8.53;;;7.20;99.90;;;;;;5047971;28;20189;-78
2021/12/13 05:43:32;;;;;;;13.43;8.33;;;7.20;99.90;;;;;;5056745;28;20283;-80
2021/12/13 05:46:04;;;;;;;11.77;7.97;;;7.20;99.90;;;;;;5065536;28;20177;-78
2021/12/13 05:48:50;;;;;;;11.53;8.07;;;7.20;99.90;;;;;;5048232;28;20221;-79
2021/12/13 05:51:39;;;;;;;14.80;9.10;;;7.20;99.90;;;;;;5047461;28;20185;-77
2021/12/13 05:54:13;;;;;;;16.57;9.93;;;7.20;99.90;;;;;;5065523;28;20192;-77
2021/12/13 05:56:44;;;;;;;13.80;8.80;;;7.20;99.90;;;;;;5046997;28;20185;-79
2021/12/13 05:59:19;;;;;;;14.33;9.30;;;7.20;99.90;;;;;;5066102;28;20594;-80
2021/12/13 06:02:39;;;;;;;14.57;9.00;;;7.20;99.90;;;;;;5065344;28;20201;-79
2021/12/13 06:05:16;;;;;;;14.23;9.80;;;7.20;99.90;;;;;;4993346;28;20185;-78
2021/12/13 06:07:51;;;;;;;13.43;9.37;;;7.20;99.90;;;;;;5059108;28;20204;-79
2021/12/13 06:10:18;;;;;;;14.63;9.27;;;7.20;99.90;;;;;;5069453;28;20220;-79
2021/12/13 06:12:49;;;;;;;15.27;10.23;;;7.20;99.90;;;;;;5068994;28;20185;-77
2021/12/13 06:15:23;;;;;;;16.07;10.20;;;7.20;99.90;;;;;;5052007;28;20178;-77
2021/12/13 06:17:53;;;;;;;16.30;10.87;;;7.10;99.90;;;;;;5051415;28;20199;-79
2021/12/13 06:20:27;;;;;;;15.47;9.73;;;7.30;99.90;;;;;;5060077;28;20209;-77
2021/12/13 06:23:03;;;;;;;15.10;9.90;;;7.20;99.90;;;;;;5069092;28;20202;-78
2021/12/13 06:25:29;;;;;;;16.60;9.90;;;7.20;99.90;;;;;;5060886;28;20560;-76
2021/12/13 06:27:59;;;;;;;15.37;9.70;;;7.30;99.90;;;;;;5051005;28;20181;-79
2021/12/13 06:30:29;;;;;;;17.23;10.73;;;7.30;99.90;;;;;;5069591;28;20671;-79
2021/12/13 06:33:08;;;;;;;17.03;10.47;;;7.40;99.90;;;;;;5051167;28;20192;-81
2021/12/13 06:35:48;;;;;;;17.70;10.10;;;7.50;99.90;;;;;;5051745;28;20919;-78
2021/12/13 06:38:20;;;;;;;16.03;10.07;;;7.60;99.90;;;;;;5069053;28;20188;-77
2021/12/13 06:40:59;;;;;;;17.00;10.27;;;7.60;99.90;;;;;;5051574;28;21141;-78
2021/12/13 06:43:35;;;;;;;22.93;11.63;;;7.60;99.90;;;;;;5069740;28;20205;-78
2021/12/13 06:46:07;;;;;;;15.37;10.00;;;7.70;99.90;;;;;;5051007;28;20177;-77
2021/12/13 06:48:45;;;;;;;18.00;10.87;;;7.70;99.90;;;;;;5068807;28;20524;-77
2021/12/13 06:51:16;;;;;;;18.07;11.17;;;7.80;99.90;;;;;;5050967;28;20213;-79
2021/12/13 06:54:00;;;;;;;17.93;10.77;;;7.80;99.90;;;;;;5051103;28;20251;-80
2021/12/13 06:56:29;;;;;;;17.67;10.60;;;7.60;99.90;;;;;;5068362;28;20250;-78
2021/12/13 06:58:58;;;;;;;18.03;11.17;;;7.70;99.90;;;;;;5067350;28;20209;-79
2021/12/13 07:01:29;;;;;;;18.23;11.70;;;7.70;99.90;;;;;;5068724;28;20181;-77
2021/12/13 07:04:00;;;;;;;18.47;11.17;;;7.70;99.90;;;;;;5050204;28;20185;-80
2021/12/13 07:06:27;;;;;;;20.63;11.67;;;7.70;99.90;;;;;;5068075;28;20190;-77
2021/12/13 07:09:07;;;;;;;18.43;11.60;;;7.70;99.90;;;;;;5050271;28;20272;-80
2021/12/13 07:12:08;;;;;;;20.57;12.40;;;7.80;99.90;;;;;;5040769;28;20200;-77
2021/12/13 07:14:38;;;;;;;19.93;11.80;;;7.80;99.90;;;;;;5046161;28;20194;-78
2021/12/13 07:17:18;;;;;;;21.60;12.57;;;7.80;99.90;;;;;;5055063;28;20747;-77
2021/12/13 07:19:47;;;;;;;21.47;13.27;;;7.80;99.90;;;;;;5049483;28;20212;-78
2021/12/13 07:22:22;;;;;;;22.00;12.13;;;7.80;99.90;;;;;;5049161;28;20675;-76
2021/12/13 07:25:06;;;;;;;21.67;12.63;;;7.80;99.90;;;;;;5048714;28;20568;-80
2021/12/13 07:27:41;;;;;;;18.30;12.17;;;7.70;99.90;;;;;;5066669;28;20328;-80
2021/12/13 07:30:14;;;;;;;17.63;10.53;;;7.70;99.90;;;;;;5047617;28;20201;-78
2021/12/13 07:32:53;;;;;;;18.30;10.73;;;7.80;99.90;;;;;;5057061;28;20208;-81
2021/12/13 07:35:28;;;;;;;18.27;11.60;;;7.80;99.90;;;;;;5050592;28;20283;-78
2021/12/13 07:37:59;;;;;;;15.90;9.70;;;7.80;99.90;;;;;;5049607;28;20190;-77
2021/12/13 07:40:47;;;;;;;18.70;10.77;;;7.80;99.90;;;;;;5068080;28;20279;-79
2021/12/13 07:43:30;;;;;;;16.70;10.20;;;7.80;99.90;;;;;;5049538;28;20201;-79
2021/12/13 07:46:02;;;;;;;18.40;11.20;;;7.90;99.90;;;;;;5067806;28;21162;-77
2021/12/13 07:48:39;;;;;;;19.27;10.50;;;8.00;99.90;;;;;;5067919;28;20185;-77
2021/12/13 07:51:11;;;;;;;17.67;11.57;;;8.00;99.90;;;;;;5068846;28;20177;-76
2021/12/13 07:53:57;;;;;;;15.00;9.90;;;8.00;99.90;;;;;;5051096;28;20831;-78
2021/12/13 07:56:26;;;;;;;18.63;11.17;;;8.00;99.90;;;;;;5050874;28;20207;-78
2021/12/13 07:59:00;;;;;;;18.87;11.87;;;8.00;99.90;;;;;;5066664;28;20200;-78
2021/12/13 08:01:29;;;;;;;17.30;11.87;;;8.00;99.90;;;;;;5049673;28;20235;-77
2021/12/13 08:04:05;;;;;;;18.07;11.40;;;8.00;99.90;;;;;;5068148;28;20190;-79
2021/12/13 08:07:14;;;;;;;19.57;11.87;;;8.00;99.90;;;;;;5049320;28;20188;-78
2021/12/13 08:09:43;;;;;;;15.60;10.50;;;8.20;99.90;;;;;;5056215;28;20224;-81
2021/12/13 08:12:14;;;;;;;19.40;11.73;;;8.20;99.90;;;;;;5068787;28;20190;-80
2021/12/13 08:14:42;;;;;;;17.30;11.20;;;8.20;99.90;;;;;;5050396;28;20302;-80
2021/12/13 08:17:18;;;;;;;19.20;11.77;;;8.20;99.90;;;;;;5050337;28;20891;-80
2021/12/13 08:19:50;;;;;;;19.63;11.87;;;8.20;99.90;;;;;;5057426;28;20205;-80
2021/12/13 08:22:19;;;;;;;18.13;10.90;;;8.20;99.90;;;;;;5064900;28;20852;-79
2021/12/13 08:24:57;;;;;;;17.60;11.43;;;8.30;99.90;;;;;;5073035;28;20296;-78
2021/12/13 08:27:30;;;;;;;15.83;10.03;;;8.30;99.90;;;;;;5053025;28;20635;-78
2021/12/13 08:30:08;;;;;;;19.80;12.07;;;8.40;99.90;;;;;;5049751;28;20220;-79
2021/12/13 08:32:34;;;;;;;17.57;11.00;;;8.40;99.90;;;;;;5051999;28;20189;-80
2021/12/13 08:35:06;;;;;;;17.97;11.10;;;8.30;99.90;;;;;;5056919;28;20628;-81
2021/12/13 08:37:38;;;;;;;19.43;11.97;;;8.40;99.90;;;;;;5053344;28;20185;-80
2021/12/13 08:40:17;;;;;;;17.70;11.37;;;8.40;99.90;;;;;;5066749;28;20239;-79
2021/12/13 08:42:45;;;;;;;20.70;11.70;;;8.40;99.90;;;;;;5049021;28;20209;-80
2021/12/13 08:45:23;;;;;;;16.17;11.70;;;8.40;99.90;;;;;;5066717;28;20209;-78
2021/12/13 08:47:57;;;;;;;18.50;11.47;;;8.40;99.90;;;;;;5048570;28;20901;-77
2021/12/13 08:50:28;;;;;;;17.60;10.87;;;8.40;99.90;;;;;;5051207;28;20197;-78
2021/12/13 08:53:05;;;;;;;16.63;10.83;;;8.30;99.90;;;;;;5066558;28;20173;-78
2021/12/13 08:55:41;;;;;;;19.63;12.30;;;8.40;99.90;;;;;;5066954;28;20192;-80
2021/12/13 08:58:17;;;;;;;18.57;12.20;;;8.50;99.90;;;;;;5058690;28;20279;-81
2021/12/13 09:00:48;;;;;;;19.73;12.63;;;8.50;99.90;;;;;;5049226;28;20205;-82
2021/12/13 09:03:41;;;;;;;19.97;11.27;;;8.50;99.90;;;;;;5058466;28;20209;-77
2021/12/13 09:06:18;;;;;;;14.60;10.23;;;8.60;99.90;;;;;;5066001;28;20239;-80
2021/12/13 09:08:56;;;;;;;17.27;10.80;;;8.60;99.90;;;;;;5066550;28;20264;-77
2021/12/13 09:11:37;;;;;;;18.83;11.77;;;8.60;99.90;;;;;;5048382;28;20188;-77
2021/12/13 09:14:03;;;;;;;15.97;10.37;;;8.60;99.90;;;;;;5057313;28;20609;-77
2021/12/13 09:16:43;;;;;;;17.60;11.10;;;8.70;99.90;;;;;;5048639;28;20178;-78
2021/12/13 09:19:18;;;;;;;15.43;10.27;;;8.60;99.90;;;;;;5058203;28;20691;-79
2021/12/13 09:21:52;;;;;;;16.37;10.70;;;8.70;99.90;;;;;;5066366;28;20224;-81
2021/12/13 09:24:33;;;;;;;17.60;10.50;;;8.70;99.90;;;;;;5048405;28;20185;-78
2021/12/13 09:27:31;;;;;;;14.13;8.93;;;8.80;99.90;;;;;;5048569;28;20180;-80
2021/12/13 09:30:11;;;;;;;13.23;8.70;;;8.80;99.90;;;;;;5048348;28;20236;-79
2021/12/13 09:33:17;;;;;;;13.33;9.47;;;8.90;99.90;;;;;;5048492;28;20189;-77
2021/12/13 09:36:14;;;;;;;12.27;8.93;;;8.90;99.90;;;;;;4999378;28;20743;-80
2021/12/13 09:38:51;;;;;;;13.10;8.67;;;9.00;99.90;;;;;;5063722;28;20651;-80
2021/12/13 09:41:35;;;;;;;13.40;8.37;;;9.00;99.90;;;;;;5048237;28;20200;-79
2021/12/13 09:44:03;;;;;;;11.10;7.80;;;9.00;99.90;;;;;;5066703;28;20181;-81
2021/12/13 09:46:31;;;;;;;28.97;17.77;;;9.00;99.90;;;;;;5066120;28;20185;-79
2021/12/13 09:48:59;;;;;;;16.93;11.07;;;9.00;99.90;;;;;;5066430;28;20208;-80
2021/12/13 09:51:33;;;;;;;12.07;8.37;;;9.10;99.90;;;;;;5047654;28;20272;-78
2021/12/13 09:54:02;;;;;;;12.03;8.67;;;9.10;99.90;;;;;;5047831;28;20559;-77
2021/12/13 09:56:32;;;;;;;11.87;8.13;;;9.10;99.90;;;;;;5047762;28;20200;-77
2021/12/13 09:59:06;;;;;;;10.90;7.90;;;9.10;99.90;;;;;;5065755;28;20209;-79
2021/12/13 10:01:38;;;;;;;12.57;8.37;;;9.10;99.90;;;;;;5047846;28;20185;-80
2021/12/13 10:04:06;;;;;;;9.03;7.17;;;9.10;99.90;;;;;;5065791;28;20173;-81
2021/12/13 10:06:55;;;;;;;10.73;7.93;;;9.30;99.90;;;;;;5047549;28;20189;-78
2021/12/13 10:09:26;;;;;;;10.53;7.43;;;9.30;99.90;;;;;;5065857;28;20233;-79
2021/12/13 10:11:57;;;;;;;10.77;7.97;;;9.40;99.90;;;;;;5047564;28;20177;-81
2021/12/13 10:14:29;;;;;;;9.63;7.27;;;9.40;99.90;;;;;;5056340;28;20208;-79
2021/12/13 10:16:56;;;;;;;11.17;7.43;;;9.40;99.90;;;;;;5048241;28;20638;-83
2021/12/13 10:20:00;;;;;;;10.27;7.10;;;9.50;99.90;;;;;;5050045;28;20225;-79
2021/12/13 10:22:28;;;;;;;8.97;6.73;;;9.40;99.90;;;;;;5019466;28;20208;-78
2021/12/13 10:24:58;;;;;;;11.43;7.50;;;9.50;99.90;;;;;;5065122;28;20269;-79
2021/12/13 10:27:24;;;;;;;9.27;7.10;;;9.60;99.90;;;;;;5065570;28;20539;-79
2021/12/13 10:29:54;;;;;;;9.20;6.63;;;9.50;99.90;;;;;;5046033;28;20683;-78
2021/12/13 10:32:27;;;;;;;8.50;6.13;;;9.50;99.90;;;;;;5047036;28;20213;-78
2021/12/13 10:35:07;;;;;;;8.13;6.33;;;9.50;99.90;;;;;;5047351;28;20255;-80
2021/12/13 10:37:36;;;;;;;9.30;6.23;;;9.50;99.90;;;;;;5064343;28;20655;-79
2021/12/13 10:40:15;;;;;;;8.70;6.40;;;9.50;99.90;;;;;;5064545;28;20229;-81
2021/12/13 10:42:47;;;;;;;14.03;6.77;;;9.60;99.90;;;;;;5046830;28;20209;-76
2021/12/13 10:45:39;;;;;;;8.40;6.23;;;9.60;99.90;;;;;;5046977;28;20297;-78
2021/12/13 10:48:07;;;;;;;7.37;5.60;;;9.50;99.90;;;;;;5046453;28;20178;-81
2021/12/13 10:50:41;;;;;;;7.57;5.63;;;9.70;99.90;;;;;;5055480;28;20247;-79
2021/12/13 10:53:10;;;;;;;8.63;6.27;;;9.60;99.90;;;;;;5050429;28;20189;-81
2021/12/13 10:55:45;;;;;;;9.20;5.43;;;9.50;99.90;;;;;;5068431;28;20193;-81
2021/12/13 10:58:17;;;;;;;8.17;6.23;;;9.60;99.90;;;;;;5070239;28;20196;-81
2021/12/13 11:00:51;;;;;;;8.77;6.57;;;9.70;99.90;;;;;;5050275;28;20241;-78
2021/12/13 11:03:19;;;;;;;9.53;6.77;;;9.70;99.90;;;;;;5059190;28;20231;-81
2021/12/13 11:05:46;;;;;;;8.07;6.17;;;9.80;99.90;;;;;;5068495;28;20182;-78
2021/12/13 11:08:17;;;;;;;8.48;6.55;;;9.90;99.90;;;;;;5051670;28;20178;-81
2021/12/13 11:11:06;;;;;;;9.33;6.83;;;9.90;99.90;;;;;;5068427;28;20292;-78
2021/12/13 11:13:35;;;;;;;12.23;6.97;;;10.00;99.90;;;;;;5059321;28;20247;-81
2021/12/13 11:16:06;;;;;;;9.47;6.57;;;10.00;99.90;;;;;;5050525;28;20182;-79
2021/12/13 11:18:33;;;;;;;8.53;6.57;;;10.00;99.90;;;;;;5053544;28;20177;-80
2021/12/13 11:21:09;;;;;;;10.50;6.90;;;10.10;99.90;;;;;;5051451;28;20205;-81
2021/12/13 11:23:35;;;;;;;8.83;6.77;;;10.10;99.90;;;;;;5066345;28;20219;-77
2021/12/13 11:26:06;;;;;;;9.18;6.22;;;10.10;99.90;;;;;;5041578;28;20178;-80
2021/12/13 11:28:33;;;;;;;9.07;6.72;;;10.10;99.90;;;;;;5046404;28;20169;-79
2021/12/13 11:31:07;;;;;;;10.07;6.77;;;10.10;99.90;;;;;;5046514;28;20197;-80
2021/12/13 11:33:39;;;;;;;9.63;6.97;;;10.10;99.90;;;;;;5063542;28;20720;-80
2021/12/13 11:36:08;;;;;;;9.07;6.83;;;10.10;99.90;;;;;;5045911;28;20182;-80
2021/12/13 11:39:01;;;;;;;9.50;6.55;;;10.00;99.90;;;;;;5049038;28;20268;-83
2021/12/13 11:41:37;;;;;;;9.25;6.45;;;10.00;99.90;;;;;;5048832;28;20201;-82
2021/12/13 11:44:21;;;;;;;9.47;6.87;;;10.10;99.90;;;;;;5049253;28;20214;-83
2021/12/13 11:47:18;;;;;;;9.07;7.00;;;10.00;99.90;;;;;;5049157;28;20182;-83
2021/12/13 11:50:07;;;;;;;9.37;7.20;;;10.00;99.90;;;;;;5056409;28;20208;-80
2021/12/13 11:53:12;;;;;;;12.02;6.57;;;10.20;99.90;;;;;;5047431;28;20186;-81
2021/12/13 11:55:47;;;;;;;8.67;6.87;;;10.10;99.90;;;;;;5067794;28;20274;-80
2021/12/13 11:58:34;;;;;;;11.53;7.83;;;10.10;99.90;;;;;;5048450;28;20204;-80
2021/12/13 12:01:40;;;;;;;9.87;7.33;;;10.00;99.90;;;;;;5048257;28;20189;-78
2021/12/13 12:04:40;;;;;;;9.57;7.03;;;10.10;99.90;;;;;;5043016;28;20185;-80
2021/12/13 12:07:14;;;;;;;10.20;7.40;;;10.00;99.90;;;;;;5044336;28;20185;-82
2021/12/13 12:10:20;;;;;;;9.70;7.27;;;9.90;99.90;;;;;;5044260;28;20240;-78
2021/12/13 12:12:53;;;;;;;9.00;6.73;;;10.00;99.90;;;;;;5045385;28;20213;-81
2021/12/13 12:15:20;;;;;;;10.53;7.13;;;10.00;99.90;;;;;;5045904;28;20709;-80
2021/12/13 12:17:47;;;;;;;12.73;8.20;;;10.00;99.90;;;;;;5044582;28;20197;-80
2021/12/13 12:20:22;;;;;;;10.77;7.30;;;9.90;99.90;;;;;;5044236;28;20547;-80
2021/12/13 12:22:50;;;;;;;13.87;8.23;;;9.90;99.90;;;;;;5044895;28;20219;-79
2021/12/13 12:25:18;;;;;;;10.83;7.67;;;9.90;99.90;;;;;;5063525;28;20189;-81
2021/12/13 12:27:44;;;;;;;10.77;8.07;;;9.90;99.90;;;;;;5044364;28;20438;-80
2021/12/13 12:30:22;;;;;;;9.67;7.23;;;9.90;99.90;;;;;;5043972;28;20305;-79
2021/12/13 12:32:54;;;;;;;14.53;7.63;;;9.90;99.90;;;;;;5063085;28;20201;-80
2021/12/13 12:35:29;;;;;;;11.20;7.20;;;9.80;99.90;;;;;;5045328;28;20192;-81
2021/12/13 12:38:01;;;;;;;12.80;7.97;;;9.80;99.90;;;;;;5044181;28;20227;-81
2021/12/13 12:40:52;;;;;;;11.40;7.00;;;9.80;99.90;;;;;;5044650;28;20205;-82
2021/12/13 12:43:21;;;;;;;9.33;7.03;;;9.60;99.90;;;;;;5063199;28;20213;-83
2021/12/13 12:45:55;;;;;;;11.73;8.00;;;9.70;99.90;;;;;;5063053;28;20288;-82
2021/12/13 12:48:54;;;;;;;11.13;6.87;;;9.70;99.90;;;;;;5045288;28;20182;-80
2021/12/13 12:51:26;;;;;;;13.27;7.53;;;9.70;99.90;;;;;;5062365;28;20674;-83
2021/12/13 12:54:11;;;;;;;10.37;7.60;;;9.60;99.90;;;;;;5042330;28;20445;-81
2021/12/13 12:56:53;;;;;;;10.93;7.33;;;9.70;99.90;;;;;;5044689;28;20450;-79
2021/12/13 12:59:26;;;;;;;11.83;7.73;;;9.70;99.90;;;;;;5043129;28;20225;-80
2021/12/13 13:01:58;;;;;;;11.33;8.33;;;9.70;99.90;;;;;;5062110;28;20209;-79
2021/12/13 13:04:28;;;;;;;11.80;8.60;;;9.60;99.90;;;;;;5043311;28;20178;-78
2021/12/13 13:06:59;;;;;;;9.87;7.33;;;9.60;99.90;;;;;;5042139;28;20562;-79
2021/12/13 13:09:34;;;;;;;13.07;8.03;;;9.60;99.90;;;;;;5042984;28;20371;-78
2021/12/13 13:12:01;;;;;;;15.20;8.83;;;9.60;99.90;;;;;;5042660;28;20185;-79
2021/12/13 13:14:28;;;;;;;11.70;7.50;;;9.70;99.90;;;;;;5060929;28;20350;-78
2021/12/13 13:17:05;;;;;;;11.90;8.00;;;9.60;99.90;;;;;;5042451;28;20181;-78
2021/12/13 13:19:36;;;;;;;12.57;7.93;;;9.50;99.90;;;;;;5042866;28;20228;-80
2021/12/13 13:22:25;;;;;;;11.63;8.30;;;9.50;99.90;;;;;;5061165;28;20209;-80
2021/12/13 13:25:06;;;;;;;12.40;8.23;;;9.40;99.90;;;;;;5044092;28;20690;-81
2021/12/13 13:27:32;;;;;;;12.00;7.77;;;9.40;99.90;;;;;;5043388;28;20177;-79
2021/12/13 13:30:00;;;;;;;12.10;7.83;;;9.30;99.90;;;;;;5045483;28;20208;-79
2021/12/13 13:32:27;;;;;;;14.10;8.20;;;9.30;99.90;;;;;;5065265;28;20185;-78
2021/12/13 13:34:57;;;;;;;13.23;7.83;;;9.30;99.90;;;;;;5085567;28;20674;-81
2021/12/13 13:37:30;;;;;;;11.43;7.90;;;9.30;99.90;;;;;;5045662;28;20487;-78
2021/12/13 13:40:16;;;;;;;16.20;7.43;;;9.20;99.90;;;;;;5044090;28;20202;-78
2021/12/13 13:43:03;;;;;;;11.33;7.50;;;9.30;99.90;;;;;;5062955;28;20209;-80